Time;durP1;ratioP1;P1;durP2;ratioP2;P2;SDS_P1;SDS_P2;PMS_P1;PMS_P2;Temp;Humidity;BMP_temperature;BMP_pressure;BME280_temperature;BME280_humidity;BME280_pressure;Samples;Min_cycle;Max_cycle;Signal;HPM_P1;HPM_P2
2021/04/05 00:00:44;;;;;;;7.97;2.10;;;18.00;44.70;;;;;;5046254;28;20173;-78
2021/04/05 00:03:14;;;;;;;8.38;2.47;;;17.90;44.70;;;;;;5046279;28;20162;-78
2021/04/05 00:05:41;;;;;;;7.45;2.20;;;17.90;44.70;;;;;;5029004;28;20162;-78
2021/04/05 00:08:07;;;;;;;4.80;2.05;;;17.90;44.80;;;;;;5028008;28;20159;-78
2021/04/05 00:10:49;;;;;;;4.80;1.98;;;17.90;44.80;;;;;;5046568;28;20228;-79
2021/04/05 00:13:35;;;;;;;9.07;2.10;;;17.90;44.80;;;;;;5028418;28;20257;-78
2021/04/05 00:16:22;;;;;;;5.43;2.30;;;17.90;44.80;;;;;;5045502;28;20222;-78
2021/04/05 00:19:04;;;;;;;9.52;2.40;;;17.90;44.80;;;;;;5046064;28;20185;-78
2021/04/05 00:21:30;;;;;;;9.48;2.30;;;17.90;44.80;;;;;;5028786;28;20564;-78
2021/04/05 00:23:59;;;;;;;7.30;2.20;;;17.90;44.90;;;;;;5047773;28;20552;-79
2021/04/05 00:26:25;;;;;;;6.20;1.88;;;17.90;44.90;;;;;;5047223;28;20188;-78
2021/04/05 00:28:53;;;;;;;5.35;1.67;;;17.80;44.90;;;;;;5047494;28;20170;-78
2021/04/05 00:31:19;;;;;;;6.07;2.20;;;17.90;44.90;;;;;;5047045;28;20233;-78
2021/04/05 00:33:45;;;;;;;8.02;2.38;;;17.90;44.90;;;;;;5029866;28;20201;-78
2021/04/05 00:36:12;;;;;;;6.10;2.30;;;17.90;44.90;;;;;;5029595;28;20151;-78
2021/04/05 00:38:46;;;;;;;9.15;2.78;;;17.80;44.90;;;;;;5047377;28;20170;-78
2021/04/05 00:41:14;;;;;;;6.32;2.35;;;17.80;44.90;;;;;;5028993;28;20177;-79
2021/04/05 00:43:49;;;;;;;8.45;1.98;;;17.90;44.80;;;;;;5029313;28;20597;-78
2021/04/05 00:46:20;;;;;;;6.30;2.00;;;17.80;44.90;;;;;;5029388;28;20162;-78
2021/04/05 00:48:46;;;;;;;5.80;1.98;;;17.80;44.90;;;;;;5029450;28;20174;-78
2021/04/05 00:51:25;;;;;;;5.97;2.00;;;17.90;45.00;;;;;;5030386;28;20661;-78
2021/04/05 00:53:52;;;;;;;6.93;2.20;;;17.80;45.60;;;;;;5029949;28;20222;-78
2021/04/05 00:56:22;;;;;;;6.47;2.42;;;17.80;45.00;;;;;;5029883;28;20151;-78
2021/04/05 00:58:49;;;;;;;5.93;1.90;;;17.80;44.90;;;;;;5046784;28;20151;-78
2021/04/05 01:01:19;;;;;;;6.63;2.10;;;17.80;45.00;;;;;;5029490;28;20181;-78
2021/04/05 01:03:45;;;;;;;5.93;2.10;;;17.80;45.00;;;;;;5047258;28;20151;-78
2021/04/05 01:06:24;;;;;;;5.45;1.95;;;17.80;45.00;;;;;;5029050;28;20162;-78
2021/04/05 01:08:51;;;;;;;6.20;2.05;;;17.80;45.00;;;;;;5028876;28;20154;-78
2021/04/05 01:11:23;;;;;;;6.57;2.10;;;17.80;45.00;;;;;;5030150;28;20246;-78
2021/04/05 01:13:50;;;;;;;9.60;2.25;;;17.80;45.10;;;;;;5012328;28;20185;-78
2021/04/05 01:16:18;;;;;;;7.38;2.40;;;17.80;45.00;;;;;;5046562;28;20151;-78
2021/04/05 01:18:45;;;;;;;6.25;2.15;;;17.80;45.00;;;;;;5029274;28;20151;-78
2021/04/05 01:21:12;;;;;;;5.75;2.45;;;17.80;45.00;;;;;;5029444;28;20174;-78
2021/04/05 01:23:40;;;;;;;6.78;2.10;;;17.80;45.00;;;;;;5047014;28;20626;-79
2021/04/05 01:26:14;;;;;;;4.50;1.98;;;17.80;45.00;;;;;;5046574;28;20214;-78
2021/04/05 01:28:48;;;;;;;7.40;2.30;;;17.80;45.00;;;;;;5046768;28;20186;-78
2021/04/05 01:31:14;;;;;;;8.63;2.03;;;17.80;45.00;;;;;;5027655;28;20221;-78
2021/04/05 01:33:51;;;;;;;7.80;2.03;;;17.80;45.10;;;;;;5029620;28;20177;-78
2021/04/05 01:36:25;;;;;;;6.43;2.05;;;17.80;45.00;;;;;;5029595;28;20151;-78
2021/04/05 01:39:00;;;;;;;11.07;2.38;;;17.80;45.10;;;;;;5046758;28;20150;-78
2021/04/05 01:41:29;;;;;;;7.10;2.15;;;17.70;45.10;;;;;;5045741;28;20248;-78
2021/04/05 01:43:55;;;;;;;3.70;1.92;;;17.70;45.00;;;;;;5046494;28;20178;-78
2021/04/05 01:46:30;;;;;;;8.85;2.13;;;17.70;45.00;;;;;;5045615;28;20630;-78
2021/04/05 01:49:00;;;;;;;5.88;1.92;;;17.70;45.10;;;;;;5046252;28;20162;-78
2021/04/05 01:51:34;;;;;;;5.30;2.03;;;17.70;45.10;;;;;;5012182;28;20297;-78
2021/04/05 01:54:01;;;;;;;4.85;2.00;;;17.70;45.10;;;;;;5046217;28;20158;-78
2021/04/05 01:56:27;;;;;;;10.27;2.38;;;17.70;45.10;;;;;;5046119;28;20177;-78
2021/04/05 01:58:56;;;;;;;7.95;2.65;;;17.70;45.80;;;;;;5028347;28;20664;-78
2021/04/05 02:01:24;;;;;;;7.00;2.30;;;17.70;45.10;;;;;;5046429;28;20167;-78
2021/04/05 02:04:01;;;;;;;7.38;2.30;;;17.70;45.10;;;;;;5046189;28;20214;-78
2021/04/05 02:06:32;;;;;;;5.38;2.20;;;17.70;45.10;;;;;;5046412;28;20161;-78
2021/04/05 02:08:58;;;;;;;9.35;2.40;;;17.70;45.10;;;;;;5046386;28;20245;-78
2021/04/05 02:11:28;;;;;;;6.18;2.25;;;17.70;45.10;;;;;;5046144;28;20250;-78
2021/04/05 02:14:03;;;;;;;5.55;2.10;;;17.70;45.10;;;;;;5045723;28;20162;-78
2021/04/05 02:16:30;;;;;;;7.50;2.38;;;17.70;45.10;;;;;;5028156;28;20158;-78
2021/04/05 02:18:57;;;;;;;4.90;1.75;;;17.70;45.10;;;;;;5046654;28;20210;-78
2021/04/05 02:21:24;;;;;;;5.72;2.15;;;17.70;45.10;;;;;;5046688;28;20166;-78
2021/04/05 02:24:04;;;;;;;6.30;1.80;;;17.70;45.10;;;;;;5046496;28;20182;-78
2021/04/05 02:26:38;;;;;;;5.80;2.10;;;17.70;45.20;;;;;;5028690;28;20190;-79
2021/04/05 02:29:05;;;;;;;6.38;1.95;;;17.70;45.20;;;;;;5028231;28;20186;-78
2021/04/05 02:31:33;;;;;;;7.28;2.35;;;17.70;45.10;;;;;;5045049;28;20237;-78
2021/04/05 02:34:02;;;;;;;7.25;2.33;;;17.70;45.20;;;;;;5046209;28;20169;-78
2021/04/05 02:36:39;;;;;;;6.10;1.90;;;17.70;45.10;;;;;;5045964;28;20301;-78
2021/04/05 02:39:08;;;;;;;4.95;1.98;;;17.70;45.00;;;;;;5045473;28;20211;-78
2021/04/05 02:41:38;;;;;;;4.78;1.90;;;17.70;45.00;;;;;;5045816;28;20155;-78
2021/04/05 02:44:05;;;;;;;7.00;2.28;;;17.70;45.10;;;;;;5014316;28;20186;-78
2021/04/05 02:46:35;;;;;;;6.90;2.30;;;17.70;45.20;;;;;;5032360;28;20159;-78
2021/04/05 02:49:04;;;;;;;7.18;2.10;;;17.70;45.20;;;;;;5049980;28;20567;-78
2021/04/05 02:51:30;;;;;;;5.55;2.22;;;17.70;45.20;;;;;;5050173;28;20182;-78
2021/04/05 02:54:19;;;;;;;7.78;2.60;;;17.60;45.20;;;;;;5031826;28;20589;-78
2021/04/05 02:56:49;;;;;;;6.50;2.22;;;17.60;45.20;;;;;;5031518;28;20226;-78
2021/04/05 02:59:20;;;;;;;7.78;2.38;;;17.60;45.20;;;;;;5032156;28;20155;-78
2021/04/05 03:01:47;;;;;;;3.50;1.98;;;17.60;45.20;;;;;;5032707;28;20210;-78
2021/04/05 03:04:13;;;;;;;6.65;2.30;;;17.70;45.20;;;;;;5049588;28;20234;-78
2021/04/05 03:06:40;;;;;;;5.15;2.22;;;17.60;45.20;;;;;;5032038;28;20163;-78
2021/04/05 03:09:07;;;;;;;5.38;1.92;;;17.60;45.10;;;;;;5049330;28;20163;-78
2021/04/05 03:11:34;;;;;;;5.93;2.20;;;17.60;45.20;;;;;;5031622;28;20197;-78
2021/04/05 03:14:04;;;;;;;4.18;2.00;;;17.60;45.20;;;;;;5031932;28;20162;-78
2021/04/05 03:16:39;;;;;;;6.72;2.20;;;17.60;45.20;;;;;;5032577;28;20302;-78
2021/04/05 03:19:05;;;;;;;5.82;1.90;;;17.60;45.20;;;;;;5032171;28;20166;-78
2021/04/05 03:21:31;;;;;;;5.07;2.20;;;17.60;45.30;;;;;;5031933;28;20167;-78
2021/04/05 03:24:17;;;;;;;4.57;2.00;;;17.60;45.30;;;;;;5050522;28;20186;-78
2021/04/05 03:26:48;;;;;;;4.20;1.80;;;17.60;45.20;;;;;;5013236;28;20163;-78
2021/04/05 03:29:15;;;;;;;6.70;2.30;;;17.60;45.30;;;;;;5049038;28;20155;-78
2021/04/05 03:31:50;;;;;;;7.95;2.05;;;17.60;45.20;;;;;;5031530;28;20645;-78
2021/04/05 03:34:27;;;;;;;6.25;2.05;;;17.60;45.20;;;;;;5032164;28;20150;-78
2021/04/05 03:37:12;;;;;;;4.53;1.65;;;17.60;45.30;;;;;;5031270;28;20190;-78
2021/04/05 03:39:39;;;;;;;7.78;2.25;;;17.60;45.20;;;;;;5032091;28;20221;-78
2021/04/05 03:42:24;;;;;;;6.40;1.98;;;17.60;45.20;;;;;;5031573;28;20225;-78
2021/04/05 03:45:26;;;;;;;4.65;2.25;;;17.60;45.20;;;;;;5034122;28;20155;-78
2021/04/05 03:48:17;;;;;;;9.50;2.33;;;17.60;45.20;;;;;;5049461;28;20158;-78
2021/04/05 03:50:55;;;;;;;3.78;1.60;;;17.60;45.20;;;;;;5031313;28;20692;-78
2021/04/05 03:53:41;;;;;;;5.80;2.15;;;17.60;45.20;;;;;;5049469;28;20170;-78
2021/04/05 03:56:36;;;;;;;9.10;2.40;;;17.60;45.10;;;;;;5048466;28;20153;-78
2021/04/05 03:59:05;;;;;;;4.00;1.95;;;17.60;45.10;;;;;;5048851;28;20158;-78
2021/04/05 04:01:32;;;;;;;4.90;2.00;;;17.60;45.20;;;;;;5049291;28;20174;-78
2021/04/05 04:04:09;;;;;;;5.25;1.90;;;17.60;45.00;;;;;;5030266;28;20309;-79
2021/04/05 04:09:43;;;;;;;5.40;1.90;;;17.60;45.00;;;;;;4971791;28;20184;-78
2021/04/05 04:12:13;;;;;;;6.03;2.17;;;17.80;44.40;;;;;;4968669;28;20557;-78
2021/04/05 04:14:40;;;;;;;3.67;1.90;;;17.90;44.20;;;;;;4996294;28;20606;-78
2021/04/05 04:17:10;;;;;;;5.90;2.10;;;17.90;44.10;;;;;;5003305;28;20235;-79
2021/04/05 04:19:47;;;;;;;4.28;1.80;;;17.90;44.30;;;;;;5003007;28;20184;-79
2021/04/05 04:22:21;;;;;;;4.22;1.70;;;17.90;44.10;;;;;;5004035;28;20175;-79
2021/04/05 04:24:55;;;;;;;4.43;1.95;;;17.90;43.80;;;;;;5003696;28;20156;-78
2021/04/05 04:27:22;;;;;;;4.63;1.80;;;18.00;43.80;;;;;;5003322;28;20219;-78
2021/04/05 04:29:52;;;;;;;5.18;2.13;;;18.00;43.60;;;;;;5003457;28;20164;-79
2021/04/05 04:32:27;;;;;;;5.03;1.90;;;18.10;43.60;;;;;;5002572;28;20279;-78
2021/04/05 04:38:14;;;;;;;6.20;2.03;;;18.00;43.60;;;;;;5004795;28;20236;-78
2021/04/05 04:40:41;;;;;;;5.22;1.85;;;18.00;43.80;;;;;;5005095;28;20175;-78
2021/04/05 04:43:09;;;;;;;3.90;1.85;;;18.00;43.80;;;;;;5004123;28;20172;-79
2021/04/05 04:45:40;;;;;;;3.60;1.70;;;18.00;43.70;;;;;;5028497;28;20179;-79
2021/04/05 04:48:08;;;;;;;3.30;1.63;;;18.00;43.60;;;;;;5010802;28;20155;-79
2021/04/05 04:50:35;;;;;;;5.65;1.77;;;18.00;43.70;;;;;;5027682;28;20217;-78
2021/04/05 04:53:02;;;;;;;3.85;1.60;;;17.90;43.70;;;;;;5027566;28;20166;-78
2021/04/05 04:55:38;;;;;;;5.05;1.70;;;18.00;43.40;;;;;;5026590;28;20163;-78
2021/04/05 04:58:04;;;;;;;4.60;1.50;;;18.10;43.30;;;;;;5044929;28;20150;-79
2021/04/05 05:00:33;;;;;;;2.90;1.70;;;18.00;43.30;;;;;;5044302;28;20158;-79
2021/04/05 05:03:00;;;;;;;5.15;2.00;;;18.00;43.60;;;;;;5027530;28;20166;-79
2021/04/05 05:05:28;;;;;;;2.53;1.50;;;17.90;43.30;;;;;;5026698;28;20156;-79
2021/04/05 05:08:22;;;;;;;2.67;1.70;;;17.90;43.70;;;;;;5029460;28;20165;-78
2021/04/05 05:10:49;;;;;;;4.78;1.85;;;18.00;43.40;;;;;;5025959;28;20189;-78
2021/04/05 05:13:17;;;;;;;4.35;1.50;;;18.00;43.50;;;;;;5026967;28;20179;-79
2021/04/05 05:15:43;;;;;;;3.97;1.70;;;18.00;43.20;;;;;;5044466;28;20147;-79
2021/04/05 05:18:10;;;;;;;2.83;1.60;;;18.00;43.50;;;;;;5026038;28;20630;-78
2021/04/05 05:20:45;;;;;;;4.53;1.67;;;18.00;43.50;;;;;;5044428;28;20159;-79
2021/04/05 05:23:13;;;;;;;3.25;1.63;;;17.90;43.40;;;;;;5026587;28;20166;-78
2021/04/05 05:25:40;;;;;;;3.38;1.58;;;18.00;43.30;;;;;;5015425;28;20182;-79
2021/04/05 05:28:07;;;;;;;1.85;1.20;;;17.90;43.30;;;;;;5011430;28;20175;-79
2021/04/05 05:30:33;;;;;;;3.60;1.42;;;18.00;43.10;;;;;;4995602;28;20203;-78
2021/04/05 05:33:05;;;;;;;3.72;1.65;;;18.00;43.10;;;;;;4988191;28;20207;-79
2021/04/05 05:35:38;;;;;;;3.35;1.58;;;18.00;43.10;;;;;;4988891;28;20197;-78
2021/04/05 05:38:05;;;;;;;3.22;1.65;;;17.90;43.30;;;;;;4988219;28;20615;-79
2021/04/05 05:40:31;;;;;;;3.80;1.65;;;18.00;43.10;;;;;;4997368;28;20195;-79
2021/04/05 05:42:58;;;;;;;4.28;1.88;;;17.90;43.20;;;;;;5025124;28;20156;-79
2021/04/05 05:45:33;;;;;;;4.25;1.63;;;17.90;43.20;;;;;;5024434;28;20156;-79
2021/04/05 05:48:22;;;;;;;5.05;1.70;;;17.90;43.30;;;;;;5016946;28;20552;-79
2021/04/05 05:50:53;;;;;;;2.00;1.48;;;17.90;43.30;;;;;;5027361;28;20191;-78
2021/04/05 05:53:39;;;;;;;2.28;1.48;;;17.90;43.00;;;;;;5043665;28;20150;-79
2021/04/05 05:56:23;;;;;;;2.35;1.50;;;17.90;43.10;;;;;;5038510;28;20202;-79
2021/04/05 05:59:22;;;;;;;3.28;1.83;;;18.00;42.70;;;;;;5013267;28;20187;-79
2021/04/05 06:02:12;;;;;;;2.78;1.48;;;18.00;43.00;;;;;;4946532;29;20181;-79
2021/04/05 06:05:01;;;;;;;4.65;1.60;;;18.00;42.90;;;;;;4945937;29;20182;-79
2021/04/05 06:07:34;;;;;;;3.15;1.10;;;18.00;42.90;;;;;;4933035;29;20217;-78
2021/04/05 06:10:21;;;;;;;1.48;1.20;;;17.90;42.70;;;;;;4926739;29;20198;-79
2021/04/05 06:12:52;;;;;;;1.83;1.38;;;18.00;42.50;;;;;;4931393;29;20205;-79
2021/04/05 06:15:28;;;;;;;1.58;1.15;;;18.00;42.80;;;;;;4964470;29;20184;-79
2021/04/05 06:18:11;;;;;;;2.17;1.50;;;18.00;42.60;;;;;;4948142;29;20184;-79
2021/04/05 06:20:45;;;;;;;3.10;1.38;;;18.00;42.60;;;;;;4964558;29;20256;-78
2021/04/05 06:23:31;;;;;;;1.63;1.20;;;18.00;42.50;;;;;;4948923;29;20297;-79
2021/04/05 06:26:31;;;;;;;2.60;1.40;;;18.00;42.60;;;;;;4937563;29;20175;-78
2021/04/05 06:29:05;;;;;;;2.97;1.42;;;18.00;42.60;;;;;;4924409;29;20154;-78
2021/04/05 06:31:43;;;;;;;3.08;1.30;;;18.00;42.60;;;;;;4915862;29;20267;-78
2021/04/05 06:34:22;;;;;;;2.50;1.35;;;18.00;42.50;;;;;;4906421;29;20170;-79
2021/04/05 06:37:00;;;;;;;3.55;1.63;;;18.00;42.60;;;;;;4934240;28;20212;-78
2021/04/05 06:39:35;;;;;;;1.73;1.33;;;18.00;42.60;;;;;;5004451;28;20156;-78
2021/04/05 06:42:46;;;;;;;2.05;1.20;;;18.00;42.60;;;;;;4973133;28;20242;-77
2021/04/05 06:45:37;;;;;;;2.13;1.38;;;18.00;42.40;;;;;;5005358;28;20152;-78
2021/04/05 06:48:31;;;;;;;2.22;1.17;;;18.10;42.40;;;;;;4988716;28;20148;-78
2021/04/05 06:51:36;;;;;;;1.88;1.38;;;18.10;42.20;;;;;;5005322;28;20274;-78
2021/04/05 06:54:45;;;;;;;2.38;1.27;;;18.10;42.30;;;;;;4987778;28;20167;-78
2021/04/05 06:57:32;;;;;;;1.52;1.00;;;18.00;42.40;;;;;;4977437;28;20193;-78
2021/04/05 07:00:04;;;;;;;2.58;1.20;;;18.00;42.50;;;;;;5005514;28;20165;-78
2021/04/05 07:02:49;;;;;;;2.45;1.30;;;18.10;42.10;;;;;;5005099;28;20161;-78
2021/04/05 07:05:33;;;;;;;1.80;1.17;;;18.10;42.20;;;;;;5005480;28;20219;-78
2021/04/05 07:08:30;;;;;;;1.58;1.10;;;18.00;42.20;;;;;;5004967;28;20168;-79
2021/04/05 07:11:19;;;;;;;1.65;1.20;;;18.10;42.10;;;;;;4946019;29;20214;-78
2021/04/05 07:13:49;;;;;;;1.25;1.00;;;18.00;42.20;;;;;;4945460;29;20175;-78
2021/04/05 07:16:50;;;;;;;1.95;1.42;;;18.00;42.10;;;;;;4927182;29;20194;-78
2021/04/05 07:19:48;;;;;;;1.75;1.25;;;18.00;42.10;;;;;;4937248;29;20256;-78
2021/04/05 07:22:48;;;;;;;1.83;1.08;;;18.10;42.10;;;;;;4929849;29;20617;-78
2021/04/05 07:25:25;;;;;;;2.63;1.10;;;18.10;42.10;;;;;;4946026;29;20171;-78
2021/04/05 07:28:05;;;;;;;2.53;1.38;;;18.10;42.10;;;;;;4914931;29;20192;-78
2021/04/05 07:30:32;;;;;;;1.65;1.20;;;18.10;42.00;;;;;;4932972;28;20219;-78
2021/04/05 07:33:10;;;;;;;1.75;1.13;;;18.10;42.00;;;;;;4973362;28;20629;-78
2021/04/05 07:35:44;;;;;;;2.03;1.00;;;18.00;42.00;;;;;;4967672;29;20181;-78
2021/04/05 07:38:10;;;;;;;2.53;1.08;;;18.00;42.10;;;;;;4965310;29;20176;-78
2021/04/05 07:40:55;;;;;;;1.88;1.27;;;18.00;42.30;;;;;;4967595;29;20272;-79
2021/04/05 07:43:35;;;;;;;1.70;1.17;;;18.00;42.20;;;;;;4950153;29;20206;-78
2021/04/05 07:46:18;;;;;;;2.10;1.38;;;18.00;42.30;;;;;;4947846;29;20153;-79
2021/04/05 07:49:03;;;;;;;1.63;1.30;;;18.00;42.30;;;;;;5013882;28;20187;-78
2021/04/05 07:51:43;;;;;;;2.30;1.10;;;18.00;42.30;;;;;;5006945;28;20195;-79
2021/04/05 07:54:08;;;;;;;1.60;1.20;;;18.00;42.10;;;;;;5007232;28;20160;-79
2021/04/05 07:56:57;;;;;;;2.38;0.88;;;18.00;42.20;;;;;;5006357;28;20159;-79
2021/04/05 07:59:48;;;;;;;1.50;1.10;;;18.00;42.10;;;;;;5007237;28;20168;-78
2021/04/05 08:02:16;;;;;;;2.85;1.20;;;18.00;42.20;;;;;;4989179;28;20665;-78
2021/04/05 08:04:50;;;;;;;1.33;1.20;;;18.00;42.30;;;;;;5003328;28;20634;-78
2021/04/05 08:07:53;;;;;;;2.28;1.27;;;18.00;42.10;;;;;;5016250;28;20163;-79
2021/04/05 08:11:16;;;;;;;1.48;1.00;;;18.00;42.20;;;;;;5004996;28;20192;-78
2021/04/05 08:14:09;;;;;;;2.10;0.98;;;18.00;42.20;;;;;;4965642;28;20196;-79
2021/04/05 08:16:50;;;;;;;1.38;1.17;;;18.00;42.00;;;;;;4879770;29;20184;-78
2021/04/05 08:19:23;;;;;;;1.58;1.10;;;18.00;42.10;;;;;;4868648;29;20185;-78
2021/04/05 08:22:01;;;;;;;1.58;0.90;;;18.00;42.00;;;;;;4878443;29;20281;-79
2021/04/05 08:24:30;;;;;;;1.92;1.20;;;18.10;41.80;;;;;;4903227;29;20675;-79
2021/04/05 08:27:01;;;;;;;3.38;1.13;;;18.10;41.70;;;;;;4888114;29;20169;-79
2021/04/05 08:29:44;;;;;;;1.80;1.27;;;18.20;41.70;;;;;;4871963;29;20649;-78
2021/04/05 08:32:28;;;;;;;1.42;1.00;;;18.10;41.70;;;;;;4888593;29;20242;-79
2021/04/05 08:34:59;;;;;;;1.75;1.17;;;18.20;41.50;;;;;;4876494;29;20197;-79
2021/04/05 08:37:34;;;;;;;1.40;1.00;;;18.20;41.70;;;;;;4865852;29;20188;-79
2021/04/05 08:40:10;;;;;;;1.58;1.02;;;18.10;41.70;;;;;;4867868;29;20184;-78
2021/04/05 08:43:06;;;;;;;1.70;1.10;;;18.20;41.60;;;;;;4868015;29;20196;-79
2021/04/05 08:46:01;;;;;;;1.25;1.05;;;18.20;41.60;;;;;;4921597;29;20206;-78
2021/04/05 08:48:47;;;;;;;1.25;1.02;;;18.20;41.50;;;;;;4924720;29;20163;-78
2021/04/05 08:51:24;;;;;;;1.55;0.95;;;18.30;41.30;;;;;;4925149;29;20194;-79
2021/04/05 08:53:55;;;;;;;1.60;1.08;;;18.30;41.30;;;;;;4968423;28;20188;-78
2021/04/05 08:56:22;;;;;;;1.20;0.93;;;18.30;41.40;;;;;;5002816;28;20164;-79
2021/04/05 08:59:17;;;;;;;1.33;1.08;;;18.20;41.40;;;;;;4996297;28;20243;-78
2021/04/05 09:01:46;;;;;;;1.48;1.00;;;18.20;41.40;;;;;;4984757;28;20202;-77
2021/04/05 09:04:14;;;;;;;2.42;1.20;;;18.20;41.60;;;;;;5004488;28;20152;-80
2021/04/05 09:06:48;;;;;;;2.75;1.00;;;18.20;41.40;;;;;;5004745;28;20214;-79
2021/04/05 09:09:14;;;;;;;1.70;1.20;;;18.20;41.30;;;;;;4972220;28;20525;-78
2021/04/05 09:11:40;;;;;;;1.75;1.08;;;18.20;41.50;;;;;;4986536;28;20198;-79
2021/04/05 09:14:11;;;;;;;1.40;1.00;;;18.20;41.60;;;;;;4985350;28;20164;-79
2021/04/05 09:16:52;;;;;;;1.63;0.95;;;18.20;42.10;;;;;;5003177;28;20207;-78
2021/04/05 09:19:33;;;;;;;1.77;1.00;;;18.30;41.40;;;;;;5002243;28;20168;-78
2021/04/05 09:22:11;;;;;;;0.93;0.85;;;18.20;41.40;;;;;;5002783;28;20152;-78
2021/04/05 09:25:11;;;;;;;1.38;1.05;;;18.30;41.10;;;;;;5002667;28;20164;-78
2021/04/05 09:27:57;;;;;;;1.30;0.95;;;18.30;41.20;;;;;;5002734;28;20170;-79
2021/04/05 09:30:57;;;;;;;1.65;0.90;;;18.30;40.80;;;;;;4983011;28;20193;-78
2021/04/05 09:33:59;;;;;;;0.82;0.70;;;18.40;40.70;;;;;;5002786;28;20179;-78
2021/04/05 09:36:55;;;;;;;1.33;0.90;;;18.30;40.70;;;;;;4985503;28;20168;-79
2021/04/05 09:39:48;;;;;;;0.93;0.90;;;18.40;40.70;;;;;;4985845;28;20628;-79
2021/04/05 09:42:41;;;;;;;1.55;0.90;;;18.30;41.10;;;;;;4998607;28;20223;-78
2021/04/05 09:45:07;;;;;;;2.60;1.10;;;18.20;41.70;;;;;;4999200;28;20580;-78
2021/04/05 09:47:54;;;;;;;1.00;0.90;;;18.20;41.30;;;;;;4998724;28;20600;-78
2021/04/05 09:50:47;;;;;;;1.10;0.90;;;18.30;40.70;;;;;;4997085;28;20230;-78
2021/04/05 09:53:46;;;;;;;1.63;1.05;;;18.30;40.90;;;;;;5017371;28;20198;-78
2021/04/05 09:56:15;;;;;;;0.75;0.70;;;18.30;41.00;;;;;;5018390;28;20183;-77
2021/04/05 09:58:43;;;;;;;1.45;0.98;;;18.30;40.70;;;;;;5018472;28;20183;-78
2021/04/05 10:01:10;;;;;;;1.80;1.00;;;18.30;40.70;;;;;;5001797;28;20167;-78
2021/04/05 10:03:50;;;;;;;1.98;0.85;;;18.30;40.70;;;;;;5018063;28;20148;-78
2021/04/05 10:06:17;;;;;;;1.02;0.95;;;18.40;40.40;;;;;;5019283;28;20151;-78
2021/04/05 10:08:44;;;;;;;5.28;0.90;;;18.40;40.80;;;;;;5001126;28;20156;-78
2021/04/05 10:11:11;;;;;;;2.90;0.85;;;18.30;40.70;;;;;;4999925;28;20214;-78
2021/04/05 10:13:46;;;;;;;1.67;1.00;;;18.30;40.80;;;;;;5000923;28;20295;-78
2021/04/05 10:16:13;;;;;;;2.45;1.00;;;18.20;40.80;;;;;;5002153;28;20175;-78
2021/04/05 10:18:46;;;;;;;4.40;1.10;;;18.20;41.10;;;;;;5000663;28;20155;-78
2021/04/05 10:21:12;;;;;;;2.13;1.10;;;18.30;40.70;;;;;;5002306;28;20171;-78
2021/04/05 10:23:38;;;;;;;2.60;0.90;;;18.30;40.70;;;;;;5001000;28;20242;-78
2021/04/05 10:26:04;;;;;;;6.75;0.90;;;18.30;40.40;;;;;;4999766;28;20183;-78
2021/04/05 10:28:34;;;;;;;7.40;1.33;;;18.30;40.40;;;;;;5016649;28;20160;-79
2021/04/05 10:31:01;;;;;;;16.88;1.85;;;18.40;40.30;;;;;;4999461;28;20657;-78
2021/04/05 10:33:31;;;;;;;6.03;1.15;;;18.40;40.50;;;;;;4999368;28;20534;-78
2021/04/05 10:36:00;;;;;;;8.32;1.50;;;18.40;40.30;;;;;;4999123;28;20152;-79
2021/04/05 10:38:29;;;;;;;15.60;1.73;;;18.40;40.60;;;;;;4999254;28;20156;-78
2021/04/05 10:40:55;;;;;;;8.85;1.65;;;18.30;40.60;;;;;;5000089;28;20527;-78
2021/04/05 10:43:35;;;;;;;16.92;2.13;;;18.30;40.60;;;;;;5000208;28;20190;-79
2021/04/05 10:46:16;;;;;;;13.75;1.45;;;18.30;40.70;;;;;;5015857;28;20614;-78
2021/04/05 10:48:50;;;;;;;15.07;1.70;;;18.30;40.40;;;;;;4994471;28;20172;-78
2021/04/05 10:51:28;;;;;;;11.68;1.88;;;18.40;40.50;;;;;;4980007;28;20198;-78
2021/04/05 10:54:33;;;;;;;16.98;1.55;;;18.40;40.50;;;;;;4980729;28;20249;-78
2021/04/05 10:57:27;;;;;;;12.15;1.60;;;18.40;41.20;;;;;;4997973;28;20170;-78
2021/04/05 10:59:53;;;;;;;7.80;1.23;;;18.40;40.50;;;;;;4958879;28;20187;-78
2021/04/05 11:02:21;;;;;;;7.97;1.55;;;18.40;40.30;;;;;;4980296;28;20179;-79
2021/04/05 11:04:51;;;;;;;8.70;1.40;;;18.30;40.70;;;;;;4997740;28;20257;-78
2021/04/05 11:07:18;;;;;;;6.00;1.17;;;18.30;40.50;;;;;;5003610;28;20164;-79
2021/04/05 11:09:43;;;;;;;7.68;1.30;;;18.40;40.20;;;;;;5020141;28;20702;-78
2021/04/05 11:12:10;;;;;;;6.60;1.00;;;18.30;40.20;;;;;;4983925;28;20263;-78
2021/04/05 11:14:36;;;;;;;8.07;1.48;;;18.30;40.20;;;;;;4985216;28;20164;-79
2021/04/05 11:17:02;;;;;;;11.75;1.45;;;18.40;40.20;;;;;;4981788;28;20219;-79
2021/04/05 11:19:40;;;;;;;7.15;1.00;;;18.40;40.20;;;;;;4983130;28;20263;-78
2021/04/05 11:22:06;;;;;;;8.30;1.15;;;18.40;40.20;;;;;;4983383;28;20164;-79
2021/04/05 11:24:36;;;;;;;12.45;1.98;;;18.40;40.20;;;;;;4983966;28;20167;-79
2021/04/05 11:27:06;;;;;;;8.20;1.40;;;18.40;40.00;;;;;;5000368;28;20171;-78
2021/04/05 11:29:32;;;;;;;14.20;1.60;;;18.40;40.00;;;;;;4983337;28;20168;-79
2021/04/05 11:31:59;;;;;;;19.50;1.80;;;18.40;40.20;;;;;;4982229;28;20232;-79
2021/04/05 11:34:34;;;;;;;10.32;1.65;;;18.40;40.30;;;;;;4965978;28;20239;-79
2021/04/05 11:37:00;;;;;;;19.55;1.88;;;18.40;39.80;;;;;;4982346;28;20167;-79
2021/04/05 11:39:34;;;;;;;19.80;2.17;;;18.40;40.00;;;;;;4965720;28;20667;-79
2021/04/05 11:42:01;;;;;;;11.10;1.80;;;18.40;40.00;;;;;;4981596;28;20242;-79
2021/04/05 11:44:48;;;;;;;11.55;2.10;;;18.40;39.80;;;;;;4982340;28;20179;-79
2021/04/05 11:47:14;;;;;;;19.02;1.88;;;18.40;39.90;;;;;;4982421;28;20154;-79
2021/04/05 11:49:40;;;;;;;14.15;1.63;;;18.30;40.00;;;;;;4965652;28;20160;-79
2021/04/05 11:52:09;;;;;;;25.70;1.92;;;18.40;39.80;;;;;;4983182;28;20219;-79
2021/04/05 11:54:56;;;;;;;23.98;2.25;;;18.40;39.60;;;;;;4982677;28;20501;-79
2021/04/05 11:57:39;;;;;;;26.00;2.08;;;18.40;39.70;;;;;;4997734;28;20243;-78
2021/04/05 12:00:16;;;;;;;16.42;1.75;;;18.40;39.70;;;;;;4980324;28;20195;-78
2021/04/05 12:03:01;;;;;;;19.17;1.80;;;18.40;39.60;;;;;;4980431;28;20487;-78
2021/04/05 12:05:34;;;;;;;10.80;1.52;;;18.40;39.80;;;;;;4981126;28;20160;-78
2021/04/05 12:08:09;;;;;;;11.57;1.88;;;18.40;39.70;;;;;;4965599;28;20167;-78
2021/04/05 12:10:35;;;;;;;7.35;1.48;;;18.30;39.90;;;;;;4981472;28;20234;-78
2021/04/05 12:13:15;;;;;;;6.70;1.50;;;18.30;39.70;;;;;;4982440;28;20168;-78
2021/04/05 12:15:41;;;;;;;14.68;1.75;;;18.40;39.60;;;;;;4980669;28;20156;-79
2021/04/05 12:18:07;;;;;;;8.40;1.17;;;18.40;39.40;;;;;;4997711;28;20160;-78
2021/04/05 12:20:32;;;;;;;8.60;1.38;;;18.40;39.40;;;;;;4979662;28;20179;-79
2021/04/05 12:23:06;;;;;;;5.53;1.00;;;18.40;39.50;;;;;;4963213;28;20156;-78
2021/04/05 12:25:36;;;;;;;10.63;1.25;;;18.40;39.60;;;;;;4964405;28;20156;-79
2021/04/05 12:28:04;;;;;;;7.55;1.17;;;18.40;39.30;;;;;;4981025;28;20575;-80
2021/04/05 12:30:35;;;;;;;7.28;1.40;;;18.50;39.20;;;;;;4981858;28;20304;-79
2021/04/05 12:33:01;;;;;;;6.53;1.50;;;18.40;39.40;;;;;;5021537;28;20218;-79
2021/04/05 12:35:28;;;;;;;7.40;1.38;;;18.40;39.60;;;;;;4989693;28;20526;-79
2021/04/05 12:38:03;;;;;;;7.25;1.25;;;18.40;39.50;;;;;;5020758;28;20167;-80
2021/04/05 12:40:34;;;;;;;12.77;1.60;;;18.40;39.50;;;;;;5021466;28;20233;-77
2021/04/05 12:43:14;;;;;;;6.95;0.98;;;18.30;39.60;;;;;;5021307;28;20229;-77
2021/04/05 12:45:41;;;;;;;6.43;0.98;;;18.30;39.50;;;;;;5000931;28;20159;-79
2021/04/05 12:48:26;;;;;;;5.72;1.17;;;18.40;39.20;;;;;;4983684;28;20160;-81
2021/04/05 12:50:59;;;;;;;8.60;1.00;;;18.40;39.10;;;;;;4984718;28;20199;-77
2021/04/05 12:53:26;;;;;;;8.20;1.30;;;18.40;39.10;;;;;;5000374;28;20588;-77
2021/04/05 12:55:53;;;;;;;8.13;1.15;;;18.40;39.30;;;;;;4983469;28;20164;-78
2021/04/05 12:58:27;;;;;;;3.25;0.80;;;18.40;39.20;;;;;;5000275;28;20172;-78
2021/04/05 13:00:57;;;;;;;5.78;1.13;;;18.40;39.80;;;;;;5019318;28;20237;-78
2021/04/05 13:03:23;;;;;;;6.20;1.20;;;18.40;39.20;;;;;;4980883;28;20262;-79
2021/04/05 13:06:08;;;;;;;3.42;1.00;;;18.30;39.20;;;;;;4996428;28;20161;-79
2021/04/05 13:08:43;;;;;;;6.28;1.20;;;18.40;39.00;;;;;;4980538;28;20148;-80
2021/04/05 13:11:19;;;;;;;5.25;1.30;;;18.40;39.00;;;;;;4996228;28;20187;-78
2021/04/05 13:14:29;;;;;;;5.30;1.35;;;18.40;39.10;;;;;;4998802;28;20645;-79
2021/04/05 13:17:05;;;;;;;11.70;1.40;;;18.30;39.20;;;;;;4983714;28;20206;-79
2021/04/05 13:19:38;;;;;;;9.10;1.60;;;18.40;39.00;;;;;;4997719;28;20172;-79
2021/04/05 13:22:10;;;;;;;20.92;1.88;;;18.40;38.90;;;;;;5025284;28;20169;-79
2021/04/05 13:24:36;;;;;;;13.70;1.55;;;18.40;38.90;;;;;;5009171;28;20160;-78
2021/04/05 13:27:02;;;;;;;16.85;1.60;;;18.50;38.80;;;;;;4999493;28;20270;-79
2021/04/05 13:29:30;;;;;;;19.63;1.80;;;18.50;38.80;;;;;;4999113;28;20154;-79
2021/04/05 13:31:57;;;;;;;16.75;1.67;;;18.50;38.50;;;;;;4998354;28;20227;-79